Paganini — V2CL8 — position and weather

sailwx.info

Track history (hours):
 
Tides and Currents Weather Stations Pressure Air Temp Water Temp Dewpoint Dewpoint Depression Visibility Wind Speed Wind Dir Waves Ship Positions

Paganini

Last reported at 2017-Feb-24 15:33 UTC. Time now 2017-Feb-24 17:37 UTC.
Position N 49°50' W 003°23'.

Length 90 m; draft 5.8 m.

Type: Cargo ship. MMSI: 305040000.

Date/timePositionNaut miles runAvg speedWind from/ knotsBaromVisibWave heightAir tempDewpointWater temp
2017-Feb-24 15:33N 49°50' W 003°23'17 8.5
2017-Feb-24 13:33N 49°58' W 003°00'107 7.6
2017-Feb-23 23:33N 50°28' W 000°20'8 7.5
2017-Feb-23 22:30N 50°31' W 000°08'6 6.3
2017-Feb-23 21:33N 50°32' E 000°01'5 5.3
2017-Feb-23 20:33N 50°34' E 000°09'4 4.2
2017-Feb-23 19:31N 50°35' E 000°16'3 3.3
2017-Feb-23 18:32N 50°36' E 000°21'3 2.9
2017-Feb-23 17:33N 50°37' E 000°25'3 3.3
2017-Feb-23 16:33N 50°37' E 000°30'4 3.9
2017-Feb-23 15:33N 50°39' E 000°36'4 4.3
2017-Feb-23 14:33N 50°42' E 000°41'4 4.2
2017-Feb-23 13:32N 50°44' E 000°47'4 3.7
2017-Feb-23 12:32N 50°46' E 000°52'14 3.2
2017-Feb-23 08:16N 50°54' E 001°09'2 2.9
2017-Feb-23 07:26N 50°56' E 001°12'3 3.5
2017-Feb-23 06:33N 50°58' E 001°15'5 4.6
2017-Feb-23 05:33N 51°01' E 001°21'6 5.9
2017-Feb-23 04:33N 51°05' E 001°28'7 6.7
2017-Feb-23 03:33N 51°09' E 001°36'7 6.9
2017-Feb-23 02:33N 51°15' E 001°41'7 7.4
2017-Feb-23 01:34N 51°22' E 001°43'7 7.3
2017-Feb-23 00:34N 51°30' E 001°45'7 7.2
2017-Feb-22 23:33N 51°37' E 001°46'7 7.3
2017-Feb-22 22:33N 51°44' E 001°46'7 7.5
2017-Feb-22 21:34N 51°52' E 001°45'8 8.0
2017-Feb-22 20:33N 51°60' E 001°46'9 9.0
2017-Feb-22 19:33N 52°08' E 001°49'39 9.6
2017-Feb-22 15:29N 52°48' E 001°52'9 9.5
2017-Feb-22 14:33N 52°53' E 001°40'9 9.0
2017-Feb-22 13:33N 52°60' E 001°30'8 8.5
2017-Feb-22 12:33N 53°07' E 001°23'60 8.3
2017-Feb-22 05:15N 53°58' E 000°28'6 8.8
2017-Feb-22 04:33N 54°03' E 000°22'9 9.1
2017-Feb-22 03:33N 54°10' E 000°12'10 9.5
2017-Feb-22 02:33N 54°17' E 000°01'10 9.6
2017-Feb-22 01:33N 54°24' W 000°11'8 8.0
2017-Feb-22 00:33N 54°29' W 000°21'6 0.2
2017-Feb-20 11:33N 54°34' W 000°27'9 8.8
2017-Feb-20 10:33N 54°27' W 000°17'9 8.7
2017-Feb-20 09:33N 54°21' W 000°06'8 8.2
2017-Feb-20 08:33N 54°15' E 000°03'8 8.4
2017-Feb-20 07:33N 54°09' E 000°13'9 8.6
2017-Feb-20 06:33N 54°02' E 000°23'61 8.7
2017-Feb-19 23:33N 53°11' E 001°19'9 8.8
2017-Feb-19 22:33N 53°04' E 001°27'10 9.7
2017-Feb-19 21:33N 52°56' E 001°37'1110.8
2017-Feb-19 20:33N 52°49' E 001°50'2210.6
2017-Feb-19 18:31N 52°27' E 001°55'1310.1
2017-Feb-19 17:16N 52°15' E 001°52'7 9.3
2017-Feb-19 16:33N 52°08' E 001°50'9 8.7
2017-Feb-19 15:33N 51°60' E 001°49'8 7.9
2017-Feb-19 14:33N 51°52' E 001°46'8 8.0
2017-Feb-19 13:33N 51°49' E 001°34'9 8.5
2017-Feb-19 12:33N 51°43' E 001°23'9 9.2
2017-Feb-19 11:33N 51°37' E 001°13'1010.1
2017-Feb-19 10:33N 51°32' E 000°59'1111.0
2017-Feb-19 09:33N 51°30' E 000°41'1212.1
2017-Feb-19 08:34N 51°27' E 000°23'1 1.1
2017-Feb-19 07:34N 51°27' E 000°21'0 0.0
2017-Feb-19 06:34N 51°28' E 000°21'0 0.0
2017-Feb-19 05:34N 51°27' E 000°21'0 0.0
2017-Feb-19 04:34N 51°27' E 000°21'0 0.0
2017-Feb-19 03:34N 51°27' E 000°21'0 0.0
2017-Feb-19 02:34N 51°27' E 000°21'0 0.0
2017-Feb-19 01:34N 51°27' E 000°21'0 0.0
2017-Feb-19 00:34N 51°27' E 000°21'0 0.0
2017-Feb-18 23:34N 51°27' E 000°21'0 0.0
2017-Feb-18 22:34N 51°27' E 000°21'0 0.0
2017-Feb-18 21:34N 51°28' E 000°21'0 0.0
2017-Feb-18 20:34N 51°27' E 000°21'0 0.0
2017-Feb-18 19:34N 51°28' E 000°21'0 0.0
2017-Feb-18 18:34N 51°27' E 000°21'0 0.0
2017-Feb-18 17:34N 51°27' E 000°21'0 0.0
2017-Feb-18 16:34N 51°27' E 000°21'0 0.0
2017-Feb-18 15:34N 51°27' E 000°21'0 0.0
2017-Feb-18 14:34N 51°27' E 000°21'0 0.0
2017-Feb-18 13:34N 51°27' E 000°21'0 0.0
2017-Feb-18 12:34N 51°27' E 000°21'0 0.0
2017-Feb-18 11:34N 51°27' E 000°21'0 0.0
2017-Feb-18 10:34N 51°28' E 000°21'0 0.0
2017-Feb-18 09:34N 51°27' E 000°21'0 0.0
2017-Feb-18 08:34N 51°27' E 000°21'0 0.0
2017-Feb-18 07:34N 51°27' E 000°21'0 0.0
2017-Feb-18 06:34N 51°27' E 000°21'0 0.0
2017-Feb-18 05:34N 51°27' E 000°21'0 0.0
2017-Feb-18 04:34N 51°27' E 000°21'0 0.0
2017-Feb-18 03:34N 51°27' E 000°21'0 0.0
2017-Feb-18 02:34N 51°27' E 000°21'0 0.0
2017-Feb-18 01:34N 51°28' E 000°21'0 0.0
2017-Feb-18 00:34N 51°27' E 000°21'0 0.0
2017-Feb-17 23:34N 51°27' E 000°21'0 0.1
2017-Feb-17 22:34N 51°27' E 000°21'0 0.0
2017-Feb-17 21:33N 51°27' E 000°21'0 0.0
2017-Feb-17 20:34N 51°27' E 000°21'1 0.6
2017-Feb-17 19:34N 51°27' E 000°20'2 1.6
2017-Feb-17 18:34N 51°27' E 000°23'7 6.8
2017-Feb-17 17:33N 51°30' E 000°32'8 8.4
2017-Feb-17 16:34N 51°30' E 000°46'7 6.1
2017-Feb-17 15:26N 51°30' E 000°57'4 4.6
2017-Feb-17 14:33N 51°30' E 001°03'6 6.0
2017-Feb-17 13:33N 51°29' E 001°13'6 5.7
2017-Feb-17 12:33N 51°28' E 001°22'6 5.5
2017-Feb-17 11:33N 51°25' E 001°29'5 5.2
2017-Feb-17 10:33N 51°23' E 001°36'5 4.6
2017-Feb-17 09:33N 51°18' E 001°38'5 5.3
2017-Feb-17 08:33N 51°13' E 001°37'7 6.5
2017-Feb-17 07:34N 51°07' E 001°41'7 6.7
2017-Feb-17 06:33N 51°01' E 001°34'9 9.3
2017-Feb-17 05:33N 50°54' E 001°25'1210.5
2017-Feb-17 04:26N 50°43' E 001°20'4410.2
2017-Feb-17 00:09N 50°24' E 000°17'711.3
2017-Feb-16 23:33N 50°23' E 000°07'1110.1
2017-Feb-16 22:30N 50°24' W 000°10'910.1
2017-Feb-16 21:33N 50°28' W 000°23'9 9.3
2017-Feb-16 20:33N 50°31' W 000°37'9 8.7
2017-Feb-16 19:31N 50°35' W 000°50'7 7.5
2017-Feb-16 18:33N 50°40' W 000°58'8 7.5
2017-Feb-16 17:33N 50°45' W 001°07'9 9.0
2017-Feb-16 16:34N 50°50' W 001°19'2 0.1
2017-Feb-15 00:20N 50°51' W 001°21'6 6.6
2017-Feb-14 23:27N 50°45' W 001°21'12 6.2
2017-Feb-14 21:33N 50°39' W 001°37'  
Track history (hours):
 
Tides and Currents Weather Stations Pressure Air Temp Water Temp Dewpoint Dewpoint Depression Visibility Wind Speed Wind Dir Waves Ship Positions

Paganini

Last reported at 2017-Feb-24 15:33 UTC. Time now 2017-Feb-24 17:37 UTC.
Position N 49°50' W 003°23'.

Length 90 m; draft 5.8 m.

Type: Cargo ship. MMSI: 305040000.

Date/timePositionNaut miles runAvg speedWind from/ knotsBaromVisibWave heightAir tempDewpointWater temp
2017-Feb-24 15:33N 49°50' W 003°23'17 8.5
2017-Feb-24 13:33N 49°58' W 003°00'107 7.6
2017-Feb-23 23:33N 50°28' W 000°20'8 7.5
2017-Feb-23 22:30N 50°31' W 000°08'6 6.3
2017-Feb-23 21:33N 50°32' E 000°01'5 5.3
2017-Feb-23 20:33N 50°34' E 000°09'4 4.2
2017-Feb-23 19:31N 50°35' E 000°16'3 3.3
2017-Feb-23 18:32N 50°36' E 000°21'3 2.9
2017-Feb-23 17:33N 50°37' E 000°25'3 3.3
2017-Feb-23 16:33N 50°37' E 000°30'4 3.9
2017-Feb-23 15:33N 50°39' E 000°36'4 4.3
2017-Feb-23 14:33N 50°42' E 000°41'4 4.2
2017-Feb-23 13:32N 50°44' E 000°47'4 3.7
2017-Feb-23 12:32N 50°46' E 000°52'14 3.2
2017-Feb-23 08:16N 50°54' E 001°09'2 2.9
2017-Feb-23 07:26N 50°56' E 001°12'3 3.5
2017-Feb-23 06:33N 50°58' E 001°15'5 4.6
2017-Feb-23 05:33N 51°01' E 001°21'6 5.9
2017-Feb-23 04:33N 51°05' E 001°28'7 6.7
2017-Feb-23 03:33N 51°09' E 001°36'7 6.9
2017-Feb-23 02:33N 51°15' E 001°41'7 7.4
2017-Feb-23 01:34N 51°22' E 001°43'7 7.3
2017-Feb-23 00:34N 51°30' E 001°45'7 7.2
2017-Feb-22 23:33N 51°37' E 001°46'7 7.3
2017-Feb-22 22:33N 51°44' E 001°46'7 7.5
2017-Feb-22 21:34N 51°52' E 001°45'8 8.0
2017-Feb-22 20:33N 51°60' E 001°46'9 9.0
2017-Feb-22 19:33N 52°08' E 001°49'39 9.6
2017-Feb-22 15:29N 52°48' E 001°52'9 9.5
2017-Feb-22 14:33N 52°53' E 001°40'9 9.0
2017-Feb-22 13:33N 52°60' E 001°30'8 8.5
2017-Feb-22 12:33N 53°07' E 001°23'60 8.3
2017-Feb-22 05:15N 53°58' E 000°28'6 8.8
2017-Feb-22 04:33N 54°03' E 000°22'9 9.1
2017-Feb-22 03:33N 54°10' E 000°12'10 9.5
2017-Feb-22 02:33N 54°17' E 000°01'10 9.6
2017-Feb-22 01:33N 54°24' W 000°11'8 8.0
2017-Feb-22 00:33N 54°29' W 000°21'6 0.2
2017-Feb-20 11:33N 54°34' W 000°27'9 8.8
2017-Feb-20 10:33N 54°27' W 000°17'9 8.7
2017-Feb-20 09:33N 54°21' W 000°06'8 8.2
2017-Feb-20 08:33N 54°15' E 000°03'8 8.4
2017-Feb-20 07:33N 54°09' E 000°13'9 8.6
2017-Feb-20 06:33N 54°02' E 000°23'61 8.7
2017-Feb-19 23:33N 53°11' E 001°19'9 8.8
2017-Feb-19 22:33N 53°04' E 001°27'10 9.7
2017-Feb-19 21:33N 52°56' E 001°37'1110.8
2017-Feb-19 20:33N 52°49' E 001°50'2210.6
2017-Feb-19 18:31N 52°27' E 001°55'1310.1
2017-Feb-19 17:16N 52°15' E 001°52'7 9.3
2017-Feb-19 16:33N 52°08' E 001°50'9 8.7
2017-Feb-19 15:33N 51°60' E 001°49'8 7.9
2017-Feb-19 14:33N 51°52' E 001°46'8 8.0
2017-Feb-19 13:33N 51°49' E 001°34'9 8.5
2017-Feb-19 12:33N 51°43' E 001°23'9 9.2
2017-Feb-19 11:33N 51°37' E 001°13'1010.1
2017-Feb-19 10:33N 51°32' E 000°59'1111.0
2017-Feb-19 09:33N 51°30' E 000°41'1212.1
2017-Feb-19 08:34N 51°27' E 000°23'1 1.1
2017-Feb-19 07:34N 51°27' E 000°21'0 0.0
2017-Feb-19 06:34N 51°28' E 000°21'0 0.0
2017-Feb-19 05:34N 51°27' E 000°21'0 0.0
2017-Feb-19 04:34N 51°27' E 000°21'0 0.0
2017-Feb-19 03:34N 51°27' E 000°21'0 0.0
2017-Feb-19 02:34N 51°27' E 000°21'0 0.0
2017-Feb-19 01:34N 51°27' E 000°21'0 0.0
2017-Feb-19 00:34N 51°27' E 000°21'0 0.0
2017-Feb-18 23:34N 51°27' E 000°21'0 0.0
2017-Feb-18 22:34N 51°27' E 000°21'0 0.0
2017-Feb-18 21:34N 51°28' E 000°21'0 0.0
2017-Feb-18 20:34N 51°27' E 000°21'0 0.0
2017-Feb-18 19:34N 51°28' E 000°21'0 0.0
2017-Feb-18 18:34N 51°27' E 000°21'0 0.0
2017-Feb-18 17:34N 51°27' E 000°21'0 0.0
2017-Feb-18 16:34N 51°27' E 000°21'0 0.0
2017-Feb-18 15:34N 51°27' E 000°21'0 0.0
2017-Feb-18 14:34N 51°27' E 000°21'0 0.0
2017-Feb-18 13:34N 51°27' E 000°21'0 0.0
2017-Feb-18 12:34N 51°27' E 000°21'0 0.0
2017-Feb-18 11:34N 51°27' E 000°21'0 0.0
2017-Feb-18 10:34N 51°28' E 000°21'0 0.0
2017-Feb-18 09:34N 51°27' E 000°21'0 0.0
2017-Feb-18 08:34N 51°27' E 000°21'0 0.0
2017-Feb-18 07:34N 51°27' E 000°21'0 0.0
2017-Feb-18 06:34N 51°27' E 000°21'0 0.0
2017-Feb-18 05:34N 51°27' E 000°21'0 0.0
2017-Feb-18 04:34N 51°27' E 000°21'0 0.0
2017-Feb-18 03:34N 51°27' E 000°21'0 0.0
2017-Feb-18 02:34N 51°27' E 000°21'0 0.0
2017-Feb-18 01:34N 51°28' E 000°21'0 0.0
2017-Feb-18 00:34N 51°27' E 000°21'0 0.0
2017-Feb-17 23:34N 51°27' E 000°21'0 0.1
2017-Feb-17 22:34N 51°27' E 000°21'0 0.0
2017-Feb-17 21:33N 51°27' E 000°21'0 0.0
2017-Feb-17 20:34N 51°27' E 000°21'1 0.6
2017-Feb-17 19:34N 51°27' E 000°20'2 1.6
2017-Feb-17 18:34N 51°27' E 000°23'7 6.8
2017-Feb-17 17:33N 51°30' E 000°32'8 8.4
2017-Feb-17 16:34N 51°30' E 000°46'7 6.1
2017-Feb-17 15:26N 51°30' E 000°57'4 4.6
2017-Feb-17 14:33N 51°30' E 001°03'6 6.0
2017-Feb-17 13:33N 51°29' E 001°13'6 5.7
2017-Feb-17 12:33N 51°28' E 001°22'6 5.5
2017-Feb-17 11:33N 51°25' E 001°29'5 5.2
2017-Feb-17 10:33N 51°23' E 001°36'5 4.6
2017-Feb-17 09:33N 51°18' E 001°38'5 5.3
2017-Feb-17 08:33N 51°13' E 001°37'7 6.5
2017-Feb-17 07:34N 51°07' E 001°41'7 6.7
2017-Feb-17 06:33N 51°01' E 001°34'9 9.3
2017-Feb-17 05:33N 50°54' E 001°25'1210.5
2017-Feb-17 04:26N 50°43' E 001°20'4410.2
2017-Feb-17 00:09N 50°24' E 000°17'711.3
2017-Feb-16 23:33N 50°23' E 000°07'1110.1
2017-Feb-16 22:30N 50°24' W 000°10'910.1
2017-Feb-16 21:33N 50°28' W 000°23'9 9.3
2017-Feb-16 20:33N 50°31' W 000°37'9 8.7
2017-Feb-16 19:31N 50°35' W 000°50'7 7.5
2017-Feb-16 18:33N 50°40' W 000°58'8 7.5
2017-Feb-16 17:33N 50°45' W 001°07'9 9.0
2017-Feb-16 16:34N 50°50' W 001°19'2 0.1
2017-Feb-15 00:20N 50°51' W 001°21'6 6.6
2017-Feb-14 23:27N 50°45' W 001°21'12 6.2
2017-Feb-14 21:33N 50°39' W 001°37'  

Dump ship's entire track history